Mayfield West, New South Wales

12:34 AM AEDT on October 24, 2014 (GMT +1100)
Warabrook | Change Station
CLOSE
Current Station
Personal Weather Station
Location: Warabrook, NEW SOUTH WALES
Elevation: 39 ft
Nearby Weather Stations

Elev 39 ft 32.88 °S, 151.72 °E | Updated 4 minutes ago

Clear
Clear
63.8 °F
Feels Like 63.8 °F
N
0.0
Wind Variable Wind from SSW
Gusts 0.0 mph

Today
High -- | Low -- °F
--% Chance of Precip.
Yesterday
High -- | Low -- °F
Precip. -- in
6:02 AM 7:12 PM
Waning Crescent, 0% visible
Pressure 30.09 in
Visibility 6.2 miles
Clouds
Dew Point 62 °F
Humidity 93%
Rainfall 0.00 in
Snow Depth Not available.
UV Not available.
Pollen Not available.
Air Quality Not available.
Flu Activity Not available.
METAR YWLM 231300Z AUTO 00000KT 9999 // NCD 15/14 Q1019

More Conditions Fewer Conditions

Pressure 30.09 in
Visibility 6.2 miles
Clouds
Dew Point 62 °F
Humidity 93%
Rainfall 0.00 in
Snow Depth Not available.
UV Not available.
Pollen Not available.
Air Quality Not available.
Flu Activity Not available.
METAR YWLM 231300Z AUTO 00000KT 9999 // NCD 15/14 Q1019

More Conditions Fewer Conditions

10-Day Weather Forecast

Almanac

Astronomy

Oct. 24, 2014 Rise Set
Actual Time 6:02 AM AEDT 7:12 PM AEDT
Civil Twilight 5:37 AM AEDT 7:38 PM AEDT
Nautical Twilight 5:06 AM AEDT 8:08 PM AEDT
Astronomical Twilight 4:35 AM AEDT 8:40 PM AEDT
Moon 6:07 AM AEDT (10/24) 7:30 PM AEDT (10/24)
Length of Visible Light 14h 00m
Length of Day
13h 09m
Tomorrow will be 1m 55s longer.
Waning Crescent, 0% of the Moon is Illuminated
Oct 23
Waning Crescent
Oct 23
New
Oct 30
First Quarter
Nov 6
Full
Nov 14
Last Quarter

Yesterday's Extremes

Country Highs Country Lows

Community

WunderPhotos

Upload Photos

1,764,238 photos uploaded!

Nearby

Snow Depth

Not available.

Earthquake Activity

City Distance Mag. Time & Date
No recent earthquake activity has been reported nearby.
Minimum magnitude displayed is 2.5.

Coastal Water Temperatures

Place Temperature
No Stations Reporting

Nearby Weather Stations